createdAt,value
2022-10-18T00:00:49.201Z,12.94
2022-10-18T00:03:16.598Z,12.93
2022-10-18T00:05:44.105Z,12.92
2022-10-18T00:08:11.694Z,12.93
2022-10-18T00:10:39.127Z,12.94
2022-10-18T00:13:06.777Z,12.92
2022-10-18T00:15:34.283Z,12.92
2022-10-18T00:18:01.751Z,12.89
2022-10-18T00:20:29.172Z,12.88
2022-10-18T00:22:56.695Z,12.89
2022-10-18T00:25:24.150Z,12.89
2022-10-18T00:27:52.557Z,12.89
2022-10-18T00:30:19.953Z,12.90
2022-10-18T00:32:47.379Z,12.89
2022-10-18T00:35:14.820Z,12.87
2022-10-18T00:37:42.512Z,12.84
2022-10-18T00:40:10.531Z,12.82
2022-10-18T00:42:38.442Z,12.81
2022-10-18T00:45:13.378Z,12.82
2022-10-18T00:47:41.681Z,12.81
2022-10-18T00:50:10.441Z,12.77
2022-10-18T00:52:44.870Z,12.77
2022-10-18T00:55:13.126Z,12.77
2022-10-18T00:57:43.257Z,12.75
2022-10-18T01:00:12.233Z,12.74
2022-10-18T01:02:43.312Z,12.73
2022-10-18T01:05:13.583Z,12.73
2022-10-18T01:08:09.190Z,12.74
2022-10-18T01:10:48.451Z,12.71
2022-10-18T01:13:24.845Z,12.70
2022-10-18T01:16:01.547Z,12.67
2022-10-18T01:18:43.701Z,12.66
2022-10-18T01:21:26.634Z,12.61
2022-10-18T01:24:12.209Z,12.61
2022-10-18T01:27:07.569Z,12.58
2022-10-18T01:29:53.226Z,12.59
2022-10-18T01:32:25.107Z,12.58
2022-10-18T01:34:58.569Z,12.59
2022-10-18T01:37:30.015Z,12.59
2022-10-18T01:40:00.222Z,12.59
2022-10-18T01:42:28.499Z,12.57
2022-10-18T01:44:57.245Z,12.56
2022-10-18T01:47:25.559Z,12.52
2022-10-18T01:50:04.287Z,12.50
2022-10-18T01:52:32.079Z,12.49
2022-10-18T01:55:00.582Z,12.46
2022-10-18T01:57:48.041Z,12.42
2022-10-18T02:00:33.627Z,12.40
2022-10-18T02:03:06.853Z,12.38
2022-10-18T02:05:53.347Z,12.36
2022-10-18T02:08:39.011Z,12.35
2022-10-18T02:11:10.093Z,12.33
2022-10-18T02:13:43.048Z,12.29
2022-10-18T02:16:14.526Z,12.28
2022-10-18T02:18:48.724Z,12.25
2022-10-18T02:21:19.437Z,12.25
2022-10-18T02:23:47.817Z,12.22
2022-10-18T02:26:16.175Z,12.19
2022-10-18T02:28:44.806Z,12.18
2022-10-18T02:31:19.044Z,12.16
2022-10-18T02:33:53.519Z,12.13
2022-10-18T02:36:42.893Z,12.12
2022-10-18T02:39:25.033Z,12.09
2022-10-18T02:41:54.602Z,12.04
2022-10-18T02:44:22.028Z,12.02
2022-10-18T02:46:49.659Z,11.98
2022-10-18T02:49:17.216Z,11.95
2022-10-18T02:51:44.754Z,11.93
2022-10-18T02:54:12.239Z,11.94
2022-10-18T02:56:39.866Z,11.90
2022-10-18T02:59:07.539Z,11.90
2022-10-18T03:01:36.295Z,11.87
2022-10-18T03:04:04.901Z,11.84
2022-10-18T03:06:33.004Z,11.79
2022-10-18T03:09:02.659Z,11.74
2022-10-18T03:11:30.599Z,11.71
2022-10-18T03:13:58.115Z,11.61
2022-10-18T03:16:25.531Z,11.57
2022-10-18T03:18:53.030Z,11.51
2022-10-18T03:21:20.413Z,11.45
2022-10-18T03:23:47.775Z,11.44
2022-10-18T03:26:15.236Z,11.42
2022-10-18T03:28:42.712Z,11.35
2022-10-18T03:31:10.219Z,11.31
2022-10-18T03:33:37.851Z,11.31
2022-10-18T03:36:05.406Z,11.30
2022-10-18T03:38:32.759Z,11.29
2022-10-18T03:41:00.429Z,11.28
2022-10-18T03:43:28.023Z,11.24
2022-10-18T03:45:55.788Z,11.17
2022-10-18T03:48:23.462Z,11.16
2022-10-18T03:50:50.801Z,11.14
2022-10-18T03:53:18.184Z,11.13
2022-10-18T03:55:51.378Z,11.06
2022-10-18T03:58:19.643Z,11.03
2022-10-18T04:00:50.965Z,11.02
2022-10-18T04:03:19.259Z,10.99
2022-10-18T04:05:47.609Z,11.03
2022-10-18T04:08:15.602Z,11.03
2022-10-18T04:10:44.411Z,11.05
2022-10-18T04:13:11.909Z,11.05
2022-10-18T04:15:39.363Z,11.06
2022-10-18T04:18:06.974Z,11.07
2022-10-18T04:20:34.385Z,11.04
2022-10-18T04:23:01.876Z,11.00
2022-10-18T04:25:29.810Z,10.98
2022-10-18T04:27:57.413Z,10.94
2022-10-18T04:30:24.780Z,10.92
2022-10-18T04:32:52.335Z,10.89
2022-10-18T04:35:22.647Z,10.89
2022-10-18T04:37:50.879Z,10.84
2022-10-18T04:40:19.955Z,10.81
2022-10-18T04:42:47.581Z,10.79
2022-10-18T04:45:15.275Z,10.73
2022-10-18T04:47:42.708Z,10.69
2022-10-18T04:50:10.194Z,10.66
2022-10-18T04:52:37.733Z,10.61
2022-10-18T04:55:05.631Z,10.55
2022-10-18T04:57:33.338Z,10.47
2022-10-18T05:00:01.057Z,10.40
2022-10-18T05:02:28.703Z,10.35
2022-10-18T05:04:56.113Z,10.30
2022-10-18T05:07:24.103Z,10.22
2022-10-18T05:09:51.607Z,10.18
2022-10-18T05:12:19.028Z,10.12
2022-10-18T05:14:46.453Z,10.04
2022-10-18T05:17:14.289Z,10.04
2022-10-18T05:19:41.649Z,10.03
2022-10-18T05:22:09.088Z,10.01
2022-10-18T05:24:36.403Z,9.95
2022-10-18T05:27:03.882Z,9.91
2022-10-18T05:29:31.315Z,9.92
2022-10-18T05:31:58.743Z,9.95
2022-10-18T05:34:27.440Z,9.96
2022-10-18T05:36:54.791Z,9.96
2022-10-18T05:39:22.449Z,9.95
2022-10-18T05:41:49.818Z,9.93
2022-10-18T05:44:17.296Z,9.92
2022-10-18T05:46:44.687Z,9.88
2022-10-18T05:49:13.279Z,9.88
2022-10-18T05:51:40.744Z,9.82
2022-10-18T05:54:09.727Z,9.77
2022-10-18T05:59:12.731Z,9.68
2022-10-18T06:01:41.252Z,9.62
2022-10-18T06:04:12.414Z,9.56
2022-10-18T06:06:40.435Z,9.51
2022-10-18T06:09:08.629Z,9.48
2022-10-18T06:11:37.044Z,9.45
2022-10-18T06:14:05.580Z,9.47
2022-10-18T06:16:33.152Z,9.45
2022-10-18T06:19:00.543Z,9.44
2022-10-18T06:21:28.251Z,9.43
2022-10-18T06:23:57.979Z,9.43
2022-10-18T06:26:27.057Z,9.43
2022-10-18T06:28:55.159Z,9.37
2022-10-18T06:31:22.827Z,9.31
2022-10-18T06:33:50.650Z,9.23
2022-10-18T06:36:22.245Z,9.19
2022-10-18T06:38:50.471Z,9.17
2022-10-18T06:41:19.369Z,9.15
2022-10-18T06:43:50.887Z,9.10
2022-10-18T06:46:18.259Z,9.15
2022-10-18T06:48:46.363Z,9.21
2022-10-18T06:51:15.368Z,9.24
2022-10-18T06:53:44.570Z,9.25
2022-10-18T06:56:21.135Z,9.20
2022-10-18T06:58:48.477Z,9.16
2022-10-18T07:01:17.705Z,9.16
2022-10-18T07:03:47.791Z,9.22
2022-10-18T07:06:17.683Z,9.20
2022-10-18T07:08:45.505Z,9.24
2022-10-18T07:11:18.737Z,9.30
2022-10-18T07:13:46.225Z,9.31
2022-10-18T07:16:18.385Z,9.31
2022-10-18T07:18:52.073Z,9.27
2022-10-18T07:21:24.208Z,9.27
2022-10-18T07:23:52.769Z,9.33
2022-10-18T07:26:29.366Z,9.44
2022-10-18T07:29:04.881Z,9.52
2022-10-18T07:31:33.471Z,9.58
2022-10-18T07:34:01.061Z,9.65
2022-10-18T07:36:28.621Z,9.71
2022-10-18T07:38:56.145Z,9.78
2022-10-18T07:41:24.181Z,9.82
2022-10-18T07:43:53.266Z,9.90
2022-10-18T07:46:22.266Z,9.95
2022-10-18T07:48:50.405Z,9.98
2022-10-18T07:51:20.112Z,10.07
2022-10-18T07:53:47.834Z,10.17
2022-10-18T07:56:19.587Z,10.27
2022-10-18T07:58:49.229Z,10.32
2022-10-18T08:01:17.041Z,10.36
2022-10-18T08:03:44.722Z,10.48
2022-10-18T08:06:13.929Z,10.55
2022-10-18T08:08:41.886Z,10.65
2022-10-18T08:11:12.898Z,10.69
2022-10-18T08:13:40.342Z,10.76
2022-10-18T08:16:10.888Z,10.83
2022-10-18T08:18:39.243Z,10.85
2022-10-18T08:21:09.876Z,10.87
2022-10-18T08:23:38.580Z,10.91
2022-10-18T08:26:08.805Z,10.97
2022-10-18T08:28:37.039Z,11.10
2022-10-18T08:31:06.068Z,11.24
2022-10-18T08:33:35.988Z,11.30
2022-10-18T08:36:05.902Z,11.30
2022-10-18T08:38:38.008Z,11.47
2022-10-18T08:41:53.140Z,11.64
2022-10-18T08:44:27.845Z,11.68
2022-10-18T08:47:01.320Z,11.78
2022-10-18T08:49:38.191Z,11.90
2022-10-18T08:52:32.058Z,11.96
2022-10-18T08:55:10.110Z,12.06
2022-10-18T08:57:37.591Z,12.18
2022-10-18T09:00:23.095Z,12.26
2022-10-18T09:02:56.737Z,12.37
2022-10-18T09:05:48.587Z,12.44
2022-10-18T09:08:22.359Z,12.42
2022-10-18T09:11:34.477Z,12.48
2022-10-18T09:14:32.624Z,12.48
2022-10-18T09:17:28.291Z,12.58
2022-10-18T09:20:10.747Z,12.63
2022-10-18T09:22:55.328Z,12.69
2022-10-18T09:25:45.748Z,12.74
2022-10-18T09:28:28.049Z,12.73
2022-10-18T09:31:12.121Z,12.77
2022-10-18T09:33:48.466Z,12.79
2022-10-18T09:36:38.531Z,12.83
2022-10-18T09:39:13.496Z,12.93
2022-10-18T09:41:50.119Z,13.02
2022-10-18T09:44:23.359Z,13.05
2022-10-18T09:47:03.132Z,13.12
2022-10-18T09:49:36.122Z,13.21
2022-10-18T09:52:08.614Z,13.30
2022-10-18T09:54:56.468Z,13.57
2022-10-18T09:57:27.052Z,13.86
2022-10-18T09:59:54.517Z,14.08
2022-10-18T10:02:24.157Z,14.21
2022-10-18T10:04:54.316Z,14.14
2022-10-18T10:07:29.760Z,14.17
2022-10-18T10:10:21.800Z,14.44
2022-10-18T10:13:02.047Z,14.49
2022-10-18T10:15:33.200Z,14.56
2022-10-18T10:18:22.631Z,14.56
2022-10-18T10:21:03.546Z,14.61
2022-10-18T10:23:36.276Z,14.66
2022-10-18T10:26:39.525Z,14.75
2022-10-18T10:29:45.528Z,14.81
2022-10-18T10:32:16.081Z,15.02
2022-10-18T10:34:44.958Z,15.20
2022-10-18T10:37:31.844Z,15.18
2022-10-18T10:40:18.363Z,15.25
2022-10-18T10:43:38.144Z,15.45
2022-10-18T10:46:14.433Z,15.74
2022-10-18T10:48:57.240Z,16.01
2022-10-18T10:51:34.622Z,15.89
2022-10-18T10:54:22.588Z,15.69
2022-10-18T10:57:12.752Z,15.37
2022-10-18T10:59:49.364Z,15.15
2022-10-18T11:02:17.755Z,15.13
2022-10-18T11:04:47.260Z,15.17
2022-10-18T11:07:39.710Z,15.29
2022-10-18T11:10:15.466Z,15.36
2022-10-18T11:12:48.996Z,15.28
2022-10-18T11:15:26.484Z,15.07
2022-10-18T11:18:17.307Z,14.98
2022-10-18T11:20:56.598Z,15.24
2022-10-18T11:23:34.473Z,15.65
2022-10-18T11:26:10.997Z,15.81
2022-10-18T11:29:12.512Z,15.85
2022-10-18T11:32:19.515Z,16.02
2022-10-18T11:35:02.439Z,16.17
2022-10-18T11:37:48.652Z,16.34
2022-10-18T11:40:56.843Z,16.18
2022-10-18T11:43:57.490Z,16.07
2022-10-18T11:46:28.178Z,15.85
2022-10-18T11:49:07.228Z,15.91
2022-10-18T11:51:56.357Z,16.08
2022-10-18T11:54:51.749Z,16.35
2022-10-18T11:57:28.872Z,16.46
2022-10-18T12:00:02.035Z,16.52
2022-10-18T12:02:46.169Z,16.45
2022-10-18T12:05:30.054Z,16.62
2022-10-18T12:08:18.760Z,16.77
2022-10-18T12:11:06.050Z,16.91
2022-10-18T12:13:35.215Z,16.86
2022-10-18T12:16:05.287Z,16.76
2022-10-18T12:18:35.522Z,16.81
2022-10-18T12:21:06.539Z,16.70
2022-10-18T12:23:39.286Z,16.59
2022-10-18T12:26:09.942Z,16.72
2022-10-18T12:28:37.334Z,16.87
2022-10-18T12:31:20.200Z,17.04
2022-10-18T12:34:29.067Z,17.03
2022-10-18T12:37:08.819Z,16.92
2022-10-18T12:39:57.881Z,16.73
2022-10-18T12:42:40.788Z,16.62
2022-10-18T12:45:28.147Z,16.77
2022-10-18T12:48:08.564Z,16.91
2022-10-18T12:50:42.601Z,17.04
2022-10-18T12:53:17.064Z,17.29
2022-10-18T12:55:51.813Z,17.21
2022-10-18T12:58:31.623Z,17.26
2022-10-18T13:01:05.176Z,17.17
2022-10-18T13:04:00.807Z,16.86
2022-10-18T13:07:00.522Z,16.25
2022-10-18T13:09:31.434Z,15.73
2022-10-18T13:12:19.018Z,15.34
2022-10-18T13:15:05.626Z,15.21
2022-10-18T13:17:42.922Z,15.19
2022-10-18T13:20:37.379Z,15.30
2022-10-18T13:23:24.701Z,15.50
2022-10-18T13:26:01.327Z,15.74
2022-10-18T13:28:46.806Z,15.89
2022-10-18T13:31:33.200Z,15.98
2022-10-18T13:34:25.283Z,15.88
2022-10-18T13:37:15.967Z,15.94
2022-10-18T13:39:43.604Z,16.08
2022-10-18T13:42:33.661Z,16.30
2022-10-18T13:45:32.281Z,16.40
2022-10-18T13:48:30.756Z,16.74
2022-10-18T13:51:16.059Z,16.81
2022-10-18T13:53:56.307Z,16.63
2022-10-18T13:56:38.748Z,16.20
2022-10-18T13:59:29.726Z,16.05
2022-10-18T14:02:42.834Z,16.04
2022-10-18T14:05:34.264Z,15.99
2022-10-18T14:08:39.904Z,16.01
2022-10-18T14:11:35.832Z,15.94
2022-10-18T14:14:29.953Z,15.93
2022-10-18T14:16:57.822Z,15.82
2022-10-18T14:19:25.238Z,15.77
2022-10-18T14:21:59.236Z,15.72
2022-10-18T14:24:29.235Z,15.81
2022-10-18T14:27:23.571Z,15.78
2022-10-18T14:30:17.646Z,15.67
2022-10-18T14:32:50.554Z,15.66
2022-10-18T14:35:32.533Z,15.75
2022-10-18T14:38:01.246Z,15.73
2022-10-18T14:40:41.033Z,15.70
2022-10-18T14:43:19.395Z,15.69
2022-10-18T14:45:46.980Z,15.63
2022-10-18T14:48:16.127Z,15.71
2022-10-18T14:50:46.285Z,15.81
2022-10-18T14:53:25.179Z,15.76
2022-10-18T14:55:55.664Z,15.67
2022-10-18T14:58:23.768Z,15.63
2022-10-18T15:00:51.247Z,15.62
2022-10-18T15:03:19.442Z,15.52
2022-10-18T15:05:55.872Z,15.38
2022-10-18T15:08:27.335Z,15.30
2022-10-18T15:10:55.706Z,15.30
2022-10-18T15:13:25.195Z,15.23
2022-10-18T15:15:54.338Z,15.12
2022-10-18T15:18:24.549Z,15.03
2022-10-18T15:21:22.357Z,14.95
2022-10-18T15:23:50.978Z,14.87
2022-10-18T15:26:30.613Z,14.83
2022-10-18T15:29:01.529Z,14.74
2022-10-18T15:31:35.061Z,14.66
2022-10-18T15:34:15.387Z,14.55
2022-10-18T15:39:20.480Z,14.41
2022-10-18T15:41:52.366Z,14.41
2022-10-18T15:44:34.740Z,14.40
2022-10-18T15:47:16.168Z,14.33
2022-10-18T15:49:46.375Z,14.28
2022-10-18T15:52:38.509Z,14.23
2022-10-18T15:55:31.282Z,14.16
2022-10-18T15:58:06.985Z,14.10
2022-10-18T16:00:34.427Z,14.07
2022-10-18T16:03:01.944Z,14.01
2022-10-18T16:05:29.555Z,13.92
2022-10-18T16:07:57.332Z,13.79
2022-10-18T16:10:25.035Z,13.74
2022-10-18T16:12:52.764Z,13.69
2022-10-18T16:15:20.666Z,13.63
2022-10-18T16:17:48.964Z,13.58
2022-10-18T16:20:21.453Z,13.56
2022-10-18T16:22:48.915Z,13.57
2022-10-18T16:25:16.812Z,13.57
2022-10-18T16:27:44.672Z,13.57
2022-10-18T16:30:18.534Z,13.59
2022-10-18T16:32:46.784Z,13.57
2022-10-18T16:35:14.355Z,13.55
2022-10-18T16:37:41.813Z,13.50
2022-10-18T16:40:22.637Z,13.51
2022-10-18T16:42:50.038Z,13.53
2022-10-18T16:45:18.161Z,13.56
2022-10-18T16:47:46.031Z,13.54
2022-10-18T16:50:16.683Z,13.50
2022-10-18T16:52:44.538Z,13.49
2022-10-18T16:55:21.311Z,13.47
2022-10-18T16:57:50.324Z,13.48
2022-10-18T17:00:21.016Z,13.47
2022-10-18T17:02:50.236Z,13.46
2022-10-18T17:05:18.430Z,13.42
2022-10-18T17:07:47.021Z,13.39
2022-10-18T17:10:17.007Z,13.37
2022-10-18T17:12:44.537Z,13.37
2022-10-18T17:15:12.827Z,13.35
2022-10-18T17:17:40.492Z,13.36
2022-10-18T17:20:08.849Z,13.35
2022-10-18T17:22:36.550Z,13.35
2022-10-18T17:25:04.167Z,13.32
2022-10-18T17:27:32.042Z,13.30
2022-10-18T17:29:59.683Z,13.23
2022-10-18T17:32:27.443Z,13.20
2022-10-18T17:34:55.112Z,13.19
2022-10-18T17:37:22.552Z,13.20
2022-10-18T17:39:50.012Z,13.20
2022-10-18T17:42:17.809Z,13.20
2022-10-18T17:44:45.953Z,13.19
2022-10-18T17:47:14.051Z,13.16
2022-10-18T17:49:44.478Z,13.11
2022-10-18T17:52:12.054Z,13.10
2022-10-18T17:54:39.619Z,13.11
2022-10-18T17:57:07.268Z,13.10
2022-10-18T17:59:34.673Z,13.07
2022-10-18T18:02:02.135Z,13.04
2022-10-18T18:04:29.777Z,13.01
2022-10-18T18:06:59.415Z,12.97
2022-10-18T18:09:27.651Z,12.92
2022-10-18T18:11:55.725Z,12.88
2022-10-18T18:14:23.162Z,12.83
2022-10-18T18:16:50.604Z,12.75
2022-10-18T18:19:21.318Z,12.74
2022-10-18T18:21:49.279Z,12.73
2022-10-18T18:24:17.751Z,12.73
2022-10-18T18:26:45.345Z,12.75
2022-10-18T18:29:13.335Z,12.74
2022-10-18T18:31:43.773Z,12.74
2022-10-18T18:34:11.759Z,12.72
2022-10-18T18:36:39.812Z,12.69
2022-10-18T18:39:08.917Z,12.62
2022-10-18T18:41:37.803Z,12.52
2022-10-18T18:44:06.408Z,12.44
2022-10-18T18:46:38.937Z,12.37
2022-10-18T18:49:08.019Z,12.36
2022-10-18T18:51:40.229Z,12.45
2022-10-18T18:54:10.429Z,12.51
2022-10-18T18:56:38.539Z,12.53
2022-10-18T18:59:07.204Z,12.54
2022-10-18T19:01:38.412Z,12.52
2022-10-18T19:04:07.600Z,12.45
2022-10-18T19:06:38.208Z,12.47
2022-10-18T19:09:12.381Z,12.50
2022-10-18T19:11:40.142Z,12.53
2022-10-18T19:14:08.949Z,12.56
2022-10-18T19:16:39.450Z,12.60
2022-10-18T19:19:16.729Z,12.64
2022-10-18T19:21:59.331Z,12.66
2022-10-18T19:24:28.859Z,12.69
2022-10-18T19:26:59.941Z,12.73
2022-10-18T19:29:30.531Z,12.73
2022-10-18T19:32:00.807Z,12.76
2022-10-18T19:34:30.219Z,12.77
2022-10-18T19:36:58.180Z,12.80
2022-10-18T19:39:28.678Z,12.81
2022-10-18T19:41:59.391Z,12.86
2022-10-18T19:44:30.276Z,12.88
2022-10-18T19:46:58.416Z,12.87
2022-10-18T19:49:26.456Z,12.85
2022-10-18T19:51:54.938Z,12.81
2022-10-18T19:54:22.497Z,12.79
2022-10-18T19:56:50.166Z,12.68
2022-10-18T19:59:18.143Z,12.55
2022-10-18T20:01:45.788Z,12.46
2022-10-18T20:04:14.285Z,12.39
2022-10-18T20:06:42.689Z,12.38
2022-10-18T20:09:14.650Z,12.38
2022-10-18T20:11:45.605Z,12.38
2022-10-18T20:14:13.047Z,12.38
2022-10-18T20:16:40.510Z,12.39
2022-10-18T20:19:08.213Z,12.29
2022-10-18T20:21:36.379Z,12.23
2022-10-18T20:24:05.717Z,12.16
2022-10-18T20:26:34.723Z,12.12
2022-10-18T20:29:02.446Z,12.05
2022-10-18T20:31:31.906Z,11.99
2022-10-18T20:34:06.277Z,11.91
2022-10-18T20:36:34.893Z,11.82
2022-10-18T20:39:04.319Z,11.73
2022-10-18T20:41:35.306Z,11.62
2022-10-18T20:44:05.554Z,11.49
2022-10-18T20:46:35.760Z,11.40
2022-10-18T20:49:05.174Z,11.27
2022-10-18T20:51:35.860Z,11.11
2022-10-18T20:56:35.600Z,10.86
2022-10-18T20:59:06.247Z,10.71
2022-10-18T21:01:34.725Z,10.61
2022-10-18T21:04:05.571Z,10.48
2022-10-18T21:06:35.793Z,10.38
2022-10-18T21:09:06.369Z,10.29
2022-10-18T21:11:39.407Z,10.22
2022-10-18T21:14:10.209Z,10.20
2022-10-18T21:16:38.015Z,10.14
2022-10-18T21:19:28.256Z,10.06
2022-10-18T21:21:57.890Z,9.95
2022-10-18T21:24:26.590Z,9.87
2022-10-18T21:26:54.941Z,9.79
2022-10-18T21:29:24.811Z,9.70
2022-10-18T21:31:55.651Z,9.63
2022-10-18T21:34:23.118Z,9.54
2022-10-18T21:36:51.193Z,9.45
2022-10-18T21:39:21.318Z,9.35
2022-10-18T21:41:49.435Z,9.29
2022-10-18T21:44:17.147Z,9.23
2022-10-18T21:46:45.337Z,9.19
2022-10-18T21:49:13.865Z,9.15
2022-10-18T21:51:41.494Z,9.11
2022-10-18T21:54:14.804Z,9.07
2022-10-18T21:56:42.483Z,9.00
2022-10-18T21:59:12.122Z,8.93
2022-10-18T22:01:40.431Z,8.90
2022-10-18T22:04:18.226Z,8.86
2022-10-18T22:06:45.716Z,8.84
2022-10-18T22:09:13.136Z,8.85
2022-10-18T22:11:47.601Z,8.86
2022-10-18T22:14:15.204Z,8.83
2022-10-18T22:16:42.732Z,8.85
2022-10-18T22:19:10.514Z,8.97
2022-10-18T22:21:37.930Z,9.07
2022-10-18T22:24:07.479Z,9.11
2022-10-18T22:26:37.949Z,9.18
2022-10-18T22:29:16.970Z,9.25
2022-10-18T22:31:47.494Z,9.32
2022-10-18T22:34:29.322Z,9.38
2022-10-18T22:36:57.099Z,9.46
2022-10-18T22:39:24.701Z,9.55
2022-10-18T22:41:55.868Z,9.68
2022-10-18T22:44:24.320Z,9.75
2022-10-18T22:46:51.705Z,9.80
2022-10-18T22:49:19.180Z,9.79
2022-10-18T22:51:46.711Z,9.81
2022-10-18T22:54:14.439Z,9.85
2022-10-18T22:56:41.844Z,9.88
2022-10-18T22:59:09.385Z,9.88
2022-10-18T23:01:38.104Z,9.88
2022-10-18T23:04:05.489Z,9.81
2022-10-18T23:06:36.490Z,9.75
2022-10-18T23:09:07.233Z,9.74
2022-10-18T23:11:35.908Z,9.74
2022-10-18T23:14:05.228Z,9.74
2022-10-18T23:16:33.077Z,9.74
2022-10-18T23:19:00.561Z,9.80
2022-10-18T23:21:28.667Z,9.85
2022-10-18T23:23:57.584Z,9.94
2022-10-18T23:26:27.818Z,10.01
2022-10-18T23:28:55.891Z,10.08
2022-10-18T23:31:26.844Z,10.12
2022-10-18T23:33:56.769Z,10.17
2022-10-18T23:36:25.059Z,10.23
2022-10-18T23:38:52.699Z,10.30
2022-10-18T23:41:20.586Z,10.31
2022-10-18T23:43:48.703Z,10.32
2022-10-18T23:46:17.449Z,10.37
2022-10-18T23:48:45.759Z,10.39
2022-10-18T23:51:13.874Z,10.43
2022-10-18T23:53:41.260Z,10.48
2022-10-18T23:56:11.526Z,10.52
2022-10-18T23:58:39.712Z,10.54
